createdAt,value
2017-12-22T00:00:38.579Z,0.20
2017-12-22T00:03:06.387Z,0.20
2017-12-22T00:05:34.175Z,0.20
2017-12-22T00:08:01.919Z,0.10
2017-12-22T00:10:29.728Z,0.17
2017-12-22T00:12:57.449Z,0.20
2017-12-22T00:15:25.152Z,0.20
2017-12-22T00:17:52.809Z,0.20
2017-12-22T00:20:20.540Z,0.20
2017-12-22T00:22:48.239Z,0.20
2017-12-22T00:25:15.987Z,0.30
2017-12-22T00:27:43.688Z,0.60
2017-12-22T00:30:11.368Z,0.50
2017-12-22T00:32:39.092Z,1.10
2017-12-22T00:35:06.776Z,0.50
2017-12-22T00:37:34.511Z,0.30
2017-12-22T00:40:02.221Z,0.10
2017-12-22T00:42:29.952Z,0.10
2017-12-22T00:44:57.639Z,0.20
2017-12-22T00:47:25.410Z,0.20
2017-12-22T00:49:53.163Z,0.13
2017-12-22T00:52:20.831Z,0.20
2017-12-22T00:54:48.564Z,0.40
2017-12-22T00:57:16.294Z,0.20
2017-12-22T00:59:44.081Z,0.20
2017-12-22T01:02:11.793Z,0.20
2017-12-22T01:04:39.839Z,0.20
2017-12-22T01:07:07.595Z,0.17
2017-12-22T01:09:35.356Z,0.20
2017-12-22T01:12:03.026Z,0.20
2017-12-22T01:14:30.725Z,0.20
2017-12-22T01:17:04.019Z,0.20
2017-12-22T01:19:31.745Z,0.10
2017-12-22T01:22:00.029Z,0.20
2017-12-22T01:24:27.768Z,0.40
2017-12-22T01:26:55.641Z,0.20
2017-12-22T01:29:23.321Z,0.20
2017-12-22T01:31:51.148Z,0.10
2017-12-22T01:34:18.833Z,0.20
2017-12-22T01:36:47.100Z,0.13
2017-12-22T01:39:14.877Z,0.20
2017-12-22T01:41:42.654Z,0.20
2017-12-22T01:44:10.332Z,0.10
2017-12-22T01:46:38.076Z,0.10
2017-12-22T01:49:05.798Z,0.10
2017-12-22T01:51:34.047Z,0.10
2017-12-22T01:54:01.794Z,0.20
2017-12-22T01:56:29.521Z,0.20
2017-12-22T01:58:58.268Z,0.20
2017-12-22T02:01:26.225Z,0.20
2017-12-22T02:03:53.995Z,0.20
2017-12-22T02:06:21.711Z,0.20
2017-12-22T02:08:49.442Z,0.20
2017-12-22T02:11:17.163Z,0.20
2017-12-22T02:13:44.898Z,0.20
2017-12-22T02:16:12.605Z,0.20
2017-12-22T02:18:40.651Z,0.20
2017-12-22T02:21:08.351Z,0.20
2017-12-22T02:23:36.080Z,0.17
2017-12-22T02:26:03.828Z,0.20
2017-12-22T02:28:31.500Z,0.20
2017-12-22T02:30:59.754Z,0.20
2017-12-22T02:33:29.115Z,0.20
2017-12-22T02:35:56.829Z,0.20
2017-12-22T02:38:24.512Z,0.20
2017-12-22T02:40:52.297Z,0.10
2017-12-22T02:43:19.977Z,0.30
2017-12-22T02:45:47.790Z,0.20
2017-12-22T02:48:15.480Z,0.20
2017-12-22T02:50:43.227Z,0.20
2017-12-22T02:53:11.467Z,0.20
2017-12-22T02:55:39.183Z,0.20
2017-12-22T02:58:06.905Z,0.10
2017-12-22T03:00:34.597Z,0.20
2017-12-22T03:03:02.330Z,0.20
2017-12-22T03:05:30.002Z,0.20
2017-12-22T03:07:57.730Z,0.20
2017-12-22T03:10:25.867Z,0.20
2017-12-22T03:12:53.579Z,0.20
2017-12-22T03:15:21.250Z,0.10
2017-12-22T03:17:49.087Z,0.20
2017-12-22T03:20:16.759Z,0.20
2017-12-22T03:22:44.477Z,0.20
2017-12-22T03:25:12.170Z,0.10
2017-12-22T03:27:39.888Z,0.17
2017-12-22T03:30:07.591Z,0.20
2017-12-22T03:32:35.365Z,0.20
2017-12-22T03:35:03.556Z,0.20
2017-12-22T03:37:31.312Z,0.10
2017-12-22T03:39:59.075Z,0.20
2017-12-22T03:42:26.919Z,0.10
2017-12-22T03:44:56.201Z,0.20
2017-12-22T03:47:23.981Z,0.20
2017-12-22T03:49:52.376Z,0.20
2017-12-22T03:52:20.124Z,0.20
2017-12-22T03:54:48.031Z,0.20
2017-12-22T03:57:15.788Z,0.10
2017-12-22T03:59:43.446Z,0.20
2017-12-22T04:02:11.469Z,0.20
2017-12-22T04:04:39.388Z,0.17
2017-12-22T04:07:07.105Z,0.20
2017-12-22T04:09:34.773Z,0.20
2017-12-22T04:12:03.345Z,0.20
2017-12-22T04:14:31.104Z,0.20
2017-12-22T04:16:58.785Z,0.20
2017-12-22T04:19:26.641Z,0.20
2017-12-22T04:21:54.399Z,0.20
2017-12-22T04:24:22.231Z,0.27
2017-12-22T04:26:49.895Z,0.20
2017-12-22T04:29:17.610Z,0.30
2017-12-22T04:31:45.351Z,0.20
2017-12-22T04:34:13.852Z,0.20
2017-12-22T04:36:41.819Z,0.20
2017-12-22T04:39:10.295Z,0.20
2017-12-22T04:41:37.992Z,0.10
2017-12-22T04:44:05.748Z,0.20
2017-12-22T04:46:33.425Z,0.20
2017-12-22T04:49:01.254Z,0.20
2017-12-22T04:51:29.121Z,0.20
2017-12-22T04:53:56.790Z,0.10
2017-12-22T04:56:24.533Z,0.20
2017-12-22T04:58:52.211Z,0.20
2017-12-22T05:01:19.949Z,0.10
2017-12-22T05:03:47.685Z,0.20
2017-12-22T05:06:15.608Z,0.20
2017-12-22T05:08:43.335Z,0.20
2017-12-22T05:11:11.936Z,0.10
2017-12-22T05:13:39.660Z,0.20
2017-12-22T05:16:07.360Z,0.20
2017-12-22T05:18:35.056Z,0.20
2017-12-22T05:21:02.813Z,0.20
2017-12-22T05:23:30.528Z,0.30
2017-12-22T05:25:58.238Z,0.20
2017-12-22T05:28:25.981Z,0.20
2017-12-22T05:30:53.720Z,0.20
2017-12-22T05:33:21.465Z,0.20
2017-12-22T05:35:49.186Z,0.10
2017-12-22T05:38:18.083Z,0.20
2017-12-22T05:40:46.546Z,0.20
2017-12-22T05:43:14.230Z,0.20
2017-12-22T05:45:41.959Z,0.17
2017-12-22T05:48:09.620Z,0.20
2017-12-22T05:50:37.396Z,0.30
2017-12-22T05:53:05.068Z,0.10
2017-12-22T05:55:32.817Z,0.10
2017-12-22T05:58:00.480Z,0.20
2017-12-22T06:00:28.231Z,0.20
2017-12-22T06:02:55.994Z,0.20
2017-12-22T06:05:23.768Z,0.20
2017-12-22T06:07:51.594Z,0.20
2017-12-22T06:10:19.366Z,0.20
2017-12-22T06:12:47.300Z,0.23
2017-12-22T06:15:15.078Z,0.20
2017-12-22T06:17:42.827Z,0.20
2017-12-22T06:20:10.631Z,0.20
2017-12-22T06:22:39.180Z,0.20
2017-12-22T06:25:08.148Z,0.20
2017-12-22T06:27:37.069Z,0.20
2017-12-22T06:30:04.886Z,0.30
2017-12-22T06:32:32.621Z,0.20
2017-12-22T06:35:00.339Z,0.20
2017-12-22T06:37:28.087Z,7.73
2017-12-22T06:39:55.847Z,0.90
2017-12-22T06:42:23.529Z,0.60
2017-12-22T06:44:51.288Z,0.40
2017-12-22T06:47:19.368Z,0.20
2017-12-22T06:49:47.086Z,0.30
2017-12-22T06:52:15.015Z,0.70
2017-12-22T06:54:43.053Z,10.40
2017-12-22T06:57:11.296Z,8.57
2017-12-22T06:59:40.055Z,4.23
2017-12-22T07:02:09.468Z,0.63
2017-12-22T07:04:37.220Z,1.70
2017-12-22T07:07:04.951Z,2.73
2017-12-22T07:09:32.692Z,2.07
2017-12-22T07:12:00.433Z,1.60
2017-12-22T07:14:28.116Z,0.50
2017-12-22T07:16:55.843Z,0.43
2017-12-22T07:19:23.533Z,0.20
2017-12-22T07:21:51.300Z,0.53
2017-12-22T07:24:19.203Z,0.30
2017-12-22T07:26:46.899Z,0.20
2017-12-22T07:29:14.625Z,1.03
2017-12-22T07:31:42.296Z,0.60
2017-12-22T07:34:10.013Z,0.87
2017-12-22T07:36:37.785Z,0.47
2017-12-22T07:39:05.691Z,0.33
2017-12-22T07:41:33.476Z,0.23
2017-12-22T07:44:01.252Z,0.20
2017-12-22T07:46:29.068Z,0.30
2017-12-22T07:48:56.821Z,0.20
2017-12-22T07:51:24.698Z,0.30
2017-12-22T07:53:52.475Z,0.30
2017-12-22T07:56:20.803Z,0.27
2017-12-22T07:58:48.658Z,0.30
2017-12-22T08:01:16.486Z,0.47
2017-12-22T08:03:44.238Z,0.30
2017-12-22T08:06:12.158Z,0.83
2017-12-22T08:08:39.845Z,0.50
2017-12-22T08:11:08.581Z,0.40
2017-12-22T08:13:36.327Z,0.73
2017-12-22T08:16:04.241Z,0.40
2017-12-22T08:18:32.027Z,0.50
2017-12-22T08:20:59.727Z,0.50
2017-12-22T08:23:27.484Z,0.33
2017-12-22T08:25:55.197Z,0.40
2017-12-22T08:28:22.941Z,0.37
2017-12-22T08:30:50.802Z,0.20
2017-12-22T08:33:18.554Z,0.60
2017-12-22T08:35:46.281Z,0.50
2017-12-22T08:38:14.020Z,0.20
2017-12-22T08:40:41.743Z,0.23
2017-12-22T08:43:09.450Z,0.20
2017-12-22T08:45:37.212Z,0.30
2017-12-22T08:48:05.533Z,0.20
2017-12-22T08:50:33.225Z,0.20
2017-12-22T08:53:02.071Z,0.20
2017-12-22T08:55:29.856Z,0.20
2017-12-22T08:57:57.587Z,0.20
2017-12-22T09:00:25.367Z,0.30
2017-12-22T09:02:53.050Z,0.40
2017-12-22T09:05:21.530Z,0.50
2017-12-22T09:07:50.064Z,0.37
2017-12-22T09:10:17.804Z,0.33
2017-12-22T09:12:45.704Z,0.50
2017-12-22T09:15:13.409Z,0.60
2017-12-22T09:17:41.115Z,1.00
2017-12-22T09:20:09.682Z,1.27
2017-12-22T09:22:37.424Z,3.00
2017-12-22T09:25:05.221Z,2.77
2017-12-22T09:27:32.959Z,5.33
2017-12-22T09:30:00.681Z,3.17
2017-12-22T09:32:29.964Z,2.27
2017-12-22T09:34:57.673Z,2.17
2017-12-22T09:37:25.746Z,1.80
2017-12-22T09:39:53.475Z,1.07
2017-12-22T09:42:21.257Z,1.10
2017-12-22T09:44:49.183Z,0.70
2017-12-22T09:47:16.978Z,0.70
2017-12-22T09:49:45.863Z,1.43
2017-12-22T09:52:13.626Z,1.93
2017-12-22T09:54:41.338Z,4.70
2017-12-22T09:57:09.148Z,3.27
2017-12-22T09:59:37.796Z,2.60
2017-12-22T10:02:06.254Z,1.77
2017-12-22T10:04:34.582Z,1.93
2017-12-22T10:07:02.348Z,2.13
2017-12-22T10:09:30.050Z,3.60
2017-12-22T10:11:58.018Z,3.90
2017-12-22T10:14:25.765Z,3.23
2017-12-22T10:16:54.659Z,2.73
2017-12-22T10:19:22.346Z,2.13
2017-12-22T10:21:50.141Z,2.53
2017-12-22T10:24:18.054Z,2.97
2017-12-22T10:26:45.828Z,2.23
2017-12-22T10:29:13.594Z,1.43
2017-12-22T10:31:41.307Z,1.77
2017-12-22T10:34:09.432Z,2.83
2017-12-22T10:36:37.186Z,2.90
2017-12-22T10:39:05.013Z,3.27
2017-12-22T10:41:33.695Z,3.40
2017-12-22T10:44:01.926Z,2.50
2017-12-22T10:46:30.694Z,3.17
2017-12-22T10:48:59.370Z,1.97
2017-12-22T10:51:27.158Z,1.90
2017-12-22T10:53:54.942Z,1.67
2017-12-22T10:56:22.652Z,1.20
2017-12-22T10:58:50.408Z,1.00
2017-12-22T11:01:18.145Z,0.90
2017-12-22T11:03:45.982Z,0.40
2017-12-22T11:06:13.797Z,0.40
2017-12-22T11:08:42.441Z,0.70
2017-12-22T11:11:10.209Z,0.40
2017-12-22T11:13:38.019Z,0.73
2017-12-22T11:16:05.763Z,0.40
2017-12-22T11:18:33.484Z,0.57
2017-12-22T11:21:01.176Z,0.60
2017-12-22T11:23:28.925Z,0.77
2017-12-22T11:25:56.648Z,1.47
2017-12-22T11:28:24.414Z,1.13
2017-12-22T11:30:52.192Z,7.03
2017-12-22T11:33:19.889Z,6.43
2017-12-22T11:35:47.658Z,5.60
2017-12-22T11:38:15.354Z,5.07
2017-12-22T11:40:43.098Z,5.17
2017-12-22T11:43:11.858Z,4.07
2017-12-22T11:45:39.649Z,3.50
2017-12-22T11:48:07.436Z,3.43
2017-12-22T11:50:35.105Z,3.13
2017-12-22T11:53:02.899Z,3.70
2017-12-22T11:55:30.645Z,4.30
2017-12-22T11:57:58.353Z,4.17
2017-12-22T12:00:26.118Z,3.73
2017-12-22T12:02:55.048Z,2.07
2017-12-22T12:05:22.958Z,1.93
2017-12-22T12:07:50.629Z,1.60
2017-12-22T12:10:18.486Z,1.77
2017-12-22T12:12:48.019Z,2.20
2017-12-22T12:15:15.770Z,1.87
2017-12-22T12:17:43.513Z,3.80
2017-12-22T12:20:11.275Z,2.93
2017-12-22T12:22:39.452Z,2.57
2017-12-22T12:25:08.342Z,3.00
2017-12-22T12:27:36.150Z,3.50
2017-12-22T12:30:04.077Z,3.67
2017-12-22T12:32:32.765Z,5.93
2017-12-22T12:35:00.534Z,6.00
2017-12-22T12:37:28.321Z,5.83
2017-12-22T12:39:56.082Z,5.73
2017-12-22T12:42:23.839Z,5.23
2017-12-22T12:44:51.557Z,3.00
2017-12-22T12:47:19.351Z,2.03
2017-12-22T12:49:47.064Z,2.00
2017-12-22T12:52:14.781Z,3.00
2017-12-22T12:54:42.543Z,3.87
2017-12-22T12:57:10.342Z,4.30
2017-12-22T12:59:38.090Z,3.37
2017-12-22T13:02:05.904Z,1.47
2017-12-22T13:04:33.786Z,1.70
2017-12-22T13:07:01.553Z,1.37
2017-12-22T13:09:29.339Z,0.97
2017-12-22T13:11:57.112Z,0.73
2017-12-22T13:14:24.889Z,0.30
2017-12-22T13:16:52.656Z,0.30
2017-12-22T13:19:20.333Z,0.30
2017-12-22T13:21:48.083Z,0.40
2017-12-22T13:24:15.812Z,0.20
2017-12-22T13:26:43.603Z,0.50
2017-12-22T13:29:11.334Z,0.30
2017-12-22T13:31:39.188Z,0.60
2017-12-22T13:34:06.926Z,1.10
2017-12-22T13:36:34.690Z,0.43
2017-12-22T13:39:02.495Z,0.70
2017-12-22T13:41:30.247Z,0.20
2017-12-22T13:43:58.079Z,0.20
2017-12-22T13:46:25.901Z,2.23
2017-12-22T13:48:53.992Z,0.50
2017-12-22T13:51:22.059Z,0.40
2017-12-22T13:53:50.950Z,0.30
2017-12-22T13:56:19.658Z,0.30
2017-12-22T13:58:47.440Z,4.07
2017-12-22T14:01:15.275Z,3.80
2017-12-22T14:03:43.156Z,4.90
2017-12-22T14:06:10.987Z,6.53
2017-12-22T14:08:38.962Z,8.23
2017-12-22T14:11:06.880Z,6.50
2017-12-22T14:13:34.823Z,9.20
2017-12-22T14:16:02.591Z,6.20
2017-12-22T14:18:30.342Z,3.27
2017-12-22T14:20:58.108Z,4.20
2017-12-22T14:23:25.825Z,2.90
2017-12-22T14:25:53.569Z,1.50
2017-12-22T14:28:21.335Z,1.97
2017-12-22T14:30:49.068Z,1.63
2017-12-22T14:33:16.780Z,1.30
2017-12-22T14:35:45.569Z,0.43
2017-12-22T14:38:13.327Z,0.30
2017-12-22T14:40:41.040Z,0.20
2017-12-22T14:43:08.830Z,0.70
2017-12-22T14:45:36.579Z,7.17
2017-12-22T14:48:04.329Z,5.50
2017-12-22T14:50:32.047Z,6.63
2017-12-22T14:52:59.851Z,4.03
2017-12-22T14:55:27.570Z,3.03
2017-12-22T14:57:55.389Z,1.93
2017-12-22T15:00:23.084Z,1.47
2017-12-22T15:02:50.854Z,2.00
2017-12-22T15:05:18.582Z,1.63
2017-12-22T15:07:46.340Z,0.63
2017-12-22T15:10:14.923Z,0.70
2017-12-22T15:12:42.671Z,0.30
2017-12-22T15:15:10.434Z,0.30
2017-12-22T15:17:38.216Z,0.37
2017-12-22T15:20:05.986Z,0.57
2017-12-22T15:22:33.760Z,0.40
2017-12-22T15:25:01.482Z,0.30
2017-12-22T15:27:29.313Z,0.30
2017-12-22T15:29:57.104Z,0.30
2017-12-22T15:32:24.899Z,0.20
2017-12-22T15:34:52.627Z,0.30
2017-12-22T15:37:20.440Z,0.50
2017-12-22T15:39:48.159Z,0.30
2017-12-22T15:42:15.931Z,0.50
2017-12-22T15:44:44.877Z,0.43
2017-12-22T15:47:12.728Z,0.47
2017-12-22T15:49:40.527Z,0.70
2017-12-22T15:52:08.361Z,0.30
2017-12-22T15:54:36.221Z,0.30
2017-12-22T15:57:04.033Z,0.23
2017-12-22T15:59:32.862Z,0.27
2017-12-22T16:02:00.633Z,1.07
2017-12-22T16:04:28.364Z,0.40
2017-12-22T16:06:56.112Z,0.40
2017-12-22T16:09:24.660Z,0.20
2017-12-22T16:11:52.439Z,0.20
2017-12-22T16:14:20.223Z,0.20
2017-12-22T16:16:48.875Z,0.20
2017-12-22T16:19:16.574Z,0.30
2017-12-22T16:21:44.340Z,0.20
2017-12-22T16:24:12.041Z,0.20
2017-12-22T16:26:39.781Z,0.60
2017-12-22T16:29:07.585Z,0.60
2017-12-22T16:31:35.383Z,0.53
2017-12-22T16:34:03.174Z,0.80
2017-12-22T16:36:30.889Z,0.50
2017-12-22T16:38:58.686Z,0.23
2017-12-22T16:41:26.482Z,0.17
2017-12-22T16:43:54.455Z,0.27
2017-12-22T16:46:22.208Z,0.20
2017-12-22T16:48:49.964Z,0.50
2017-12-22T16:51:17.706Z,3.20
2017-12-22T16:53:45.511Z,1.47
2017-12-22T16:56:13.231Z,2.10
2017-12-22T16:58:40.928Z,1.67
2017-12-22T17:01:08.685Z,0.40
2017-12-22T17:03:36.455Z,0.60
2017-12-22T17:06:04.213Z,0.30
2017-12-22T17:08:31.983Z,0.30
2017-12-22T17:10:59.701Z,0.20
2017-12-22T17:13:27.562Z,0.70
2017-12-22T17:15:55.433Z,0.30
2017-12-22T17:18:23.181Z,0.30
2017-12-22T17:20:50.973Z,0.20
2017-12-22T17:23:18.749Z,0.20
2017-12-22T17:25:46.550Z,0.30
2017-12-22T17:28:14.408Z,0.40
2017-12-22T17:30:42.255Z,0.30
2017-12-22T17:33:10.155Z,0.20
2017-12-22T17:35:37.879Z,0.20
2017-12-22T17:38:05.639Z,1.23
2017-12-22T17:40:33.368Z,0.50
2017-12-22T17:43:01.142Z,0.30
2017-12-22T17:45:28.897Z,0.20
2017-12-22T17:47:56.837Z,0.20
2017-12-22T17:50:24.663Z,0.10
2017-12-22T17:52:52.474Z,0.20
2017-12-22T17:55:20.230Z,0.30
2017-12-22T17:57:48.148Z,0.50
2017-12-22T18:00:15.921Z,0.30
2017-12-22T18:02:43.630Z,0.20
2017-12-22T18:05:11.479Z,0.50
2017-12-22T18:07:39.269Z,0.47
2017-12-22T18:10:07.268Z,0.43
2017-12-22T18:12:35.081Z,0.20
2017-12-22T18:15:02.807Z,0.20
2017-12-22T18:17:30.605Z,0.30
2017-12-22T18:19:58.329Z,0.87
2017-12-22T18:24:59.859Z,0.53
2017-12-22T18:27:27.636Z,0.40
2017-12-22T18:29:55.375Z,0.80
2017-12-22T18:32:23.114Z,0.70
2017-12-22T18:34:50.921Z,0.30
2017-12-22T18:37:18.681Z,0.30
2017-12-22T18:39:46.405Z,0.37
2017-12-22T18:42:14.165Z,0.50
2017-12-22T18:44:41.946Z,0.30
2017-12-22T18:47:09.646Z,0.30
2017-12-22T18:49:37.339Z,0.30
2017-12-22T18:52:05.203Z,0.20
2017-12-22T18:54:32.911Z,0.30
2017-12-22T18:57:00.612Z,1.17
2017-12-22T18:59:28.427Z,0.20
2017-12-22T19:01:56.230Z,0.40
2017-12-22T19:04:24.010Z,0.30
2017-12-22T19:06:51.796Z,0.40
2017-12-22T19:09:20.363Z,0.47
2017-12-22T19:11:48.131Z,0.70
2017-12-22T19:14:17.791Z,0.57
2017-12-22T19:16:45.713Z,0.33
2017-12-22T19:19:13.552Z,0.87
2017-12-22T19:21:41.368Z,0.40
2017-12-22T19:24:09.169Z,0.27
2017-12-22T19:26:36.898Z,0.50
2017-12-22T19:29:04.682Z,0.30
2017-12-22T19:31:32.527Z,0.30
2017-12-22T19:34:00.424Z,0.20
2017-12-22T19:36:28.242Z,0.40
2017-12-22T19:38:56.134Z,0.20
2017-12-22T19:41:23.937Z,0.20
2017-12-22T19:43:51.896Z,0.30
2017-12-22T19:46:19.737Z,0.30
2017-12-22T19:48:47.573Z,1.07
2017-12-22T19:51:15.448Z,0.20
2017-12-22T19:53:43.251Z,0.30
2017-12-22T19:56:11.084Z,0.50
2017-12-22T19:58:38.860Z,0.30
2017-12-22T20:01:06.627Z,0.23
2017-12-22T20:03:34.399Z,3.90
2017-12-22T20:06:02.570Z,1.63
2017-12-22T20:08:30.278Z,0.50
2017-12-22T20:10:58.150Z,0.50
2017-12-22T20:13:26.086Z,0.50
2017-12-22T20:15:54.816Z,1.10
2017-12-22T20:18:22.596Z,0.73
2017-12-22T20:20:51.000Z,0.27
2017-12-22T20:23:18.771Z,1.57
2017-12-22T20:25:47.239Z,1.80
2017-12-22T20:28:14.956Z,0.30
2017-12-22T20:30:42.788Z,0.20
2017-12-22T20:33:10.626Z,0.30
2017-12-22T20:35:38.430Z,0.30
2017-12-22T20:38:06.188Z,0.70
2017-12-22T20:40:33.958Z,2.40
2017-12-22T20:43:01.844Z,3.87
2017-12-22T20:45:30.803Z,0.47
2017-12-22T20:47:58.672Z,0.77
2017-12-22T20:50:26.505Z,0.30
2017-12-22T20:52:54.411Z,0.30
2017-12-22T20:55:22.626Z,0.50
2017-12-22T20:57:51.355Z,0.20
2017-12-22T21:00:19.362Z,0.20
2017-12-22T21:02:47.266Z,0.20
2017-12-22T21:05:15.011Z,0.23
2017-12-22T21:07:43.298Z,0.40
2017-12-22T21:10:11.092Z,0.30
2017-12-22T21:12:38.868Z,0.27
2017-12-22T21:15:06.742Z,0.20
2017-12-22T21:17:34.589Z,0.30
2017-12-22T21:20:02.298Z,0.30
2017-12-22T21:22:30.106Z,0.23
2017-12-22T21:24:57.877Z,0.30
2017-12-22T21:27:25.615Z,0.40
2017-12-22T21:29:53.388Z,0.30
2017-12-22T21:32:21.152Z,0.30
2017-12-22T21:34:48.916Z,0.50
2017-12-22T21:37:17.981Z,0.20
2017-12-22T21:39:45.690Z,0.30
2017-12-22T21:42:13.452Z,0.23
2017-12-22T21:44:41.280Z,0.20
2017-12-22T21:47:09.347Z,0.20
2017-12-22T21:49:38.678Z,0.27
2017-12-22T21:52:10.061Z,0.20
2017-12-22T21:54:39.113Z,0.27
2017-12-22T21:57:06.984Z,0.20
2017-12-22T21:59:36.812Z,0.20
2017-12-22T22:02:05.336Z,0.20
2017-12-22T22:04:33.113Z,0.20
2017-12-22T22:07:01.031Z,0.20
2017-12-22T22:09:28.861Z,0.40
2017-12-22T22:11:56.813Z,0.30
2017-12-22T22:14:24.617Z,0.30
2017-12-22T22:16:52.526Z,0.20
2017-12-22T22:19:20.282Z,0.20
2017-12-22T22:21:48.231Z,0.20
2017-12-22T22:24:16.054Z,0.27
2017-12-22T22:26:43.810Z,0.23
2017-12-22T22:29:11.512Z,0.30
2017-12-22T22:31:39.277Z,0.30
2017-12-22T22:34:07.059Z,0.20
2017-12-22T22:36:34.952Z,0.20
2017-12-22T22:39:02.757Z,0.30
2017-12-22T22:41:30.487Z,0.40
2017-12-22T22:43:58.248Z,0.33
2017-12-22T22:46:25.983Z,0.33
2017-12-22T22:48:53.751Z,0.27
2017-12-22T22:51:21.664Z,0.30
2017-12-22T22:53:49.420Z,0.20
2017-12-22T22:56:17.145Z,0.30
2017-12-22T22:58:44.873Z,0.20
2017-12-22T23:01:12.674Z,0.30
2017-12-22T23:03:40.502Z,0.20
2017-12-22T23:06:08.320Z,0.20
2017-12-22T23:08:36.134Z,0.20
2017-12-22T23:11:03.857Z,0.20
2017-12-22T23:13:31.673Z,0.30
2017-12-22T23:15:59.356Z,0.20
2017-12-22T23:18:27.113Z,0.20
2017-12-22T23:20:54.924Z,0.30
2017-12-22T23:23:22.644Z,0.27
2017-12-22T23:25:50.424Z,0.23
2017-12-22T23:28:18.178Z,0.20
2017-12-22T23:30:45.864Z,0.20
2017-12-22T23:33:13.619Z,0.20
2017-12-22T23:35:41.398Z,0.20
2017-12-22T23:38:09.118Z,0.27
2017-12-22T23:40:36.845Z,0.20
2017-12-22T23:43:04.510Z,0.20
2017-12-22T23:45:32.242Z,0.63
2017-12-22T23:48:00.000Z,0.20
2017-12-22T23:50:27.689Z,0.27
2017-12-22T23:52:55.411Z,0.33
2017-12-22T23:55:23.087Z,0.20
2017-12-22T23:57:50.835Z,0.20
